createdAt,value
2023-03-01T06:43:09.292Z,10.40
2023-03-01T06:45:56.901Z,10.32
2023-03-01T06:48:42.890Z,10.63
2023-03-01T06:51:28.533Z,9.80
2023-03-01T06:54:15.573Z,9.98
2023-03-01T06:57:00.681Z,11.05
2023-03-01T06:59:45.926Z,10.60
2023-03-01T07:02:31.566Z,10.98
2023-03-01T07:05:17.167Z,10.75
2023-03-01T07:08:03.136Z,11.73
2023-03-01T07:10:48.224Z,10.07
2023-03-01T07:13:33.831Z,9.60
2023-03-01T07:16:20.130Z,9.93
2023-03-01T07:19:06.460Z,11.05
2023-03-01T07:21:51.904Z,10.73
2023-03-01T07:24:37.266Z,11.80
2023-03-01T07:27:22.608Z,11.48
2023-03-01T07:30:08.730Z,12.00
2023-03-01T07:32:55.749Z,11.52
2023-03-01T07:35:41.245Z,13.05
2023-03-01T07:38:27.260Z,11.73
2023-03-01T07:41:12.709Z,11.07
2023-03-01T07:43:58.251Z,10.07
2023-03-01T07:46:45.672Z,11.32
2023-03-01T07:49:30.778Z,12.32
2023-03-01T07:52:16.095Z,10.75
2023-03-01T07:55:02.001Z,11.25
2023-03-01T07:57:47.091Z,10.88
2023-03-01T08:00:32.727Z,11.30
2023-03-01T08:03:18.205Z,11.20
2023-03-01T08:06:06.219Z,11.25
2023-03-01T08:08:51.417Z,11.73
2023-03-01T08:11:36.846Z,11.88
2023-03-01T08:14:22.305Z,12.10
2023-03-01T08:17:07.793Z,12.20
2023-03-01T08:19:53.398Z,12.90
2023-03-01T08:22:38.350Z,11.38
2023-03-01T08:25:24.014Z,13.23
2023-03-01T08:28:09.550Z,13.50
2023-03-01T08:30:54.667Z,11.50
2023-03-01T08:33:42.557Z,11.73
2023-03-01T08:36:30.446Z,12.40
2023-03-01T08:39:20.300Z,12.77
2023-03-01T08:42:05.950Z,12.10
2023-03-01T08:44:52.122Z,11.20
2023-03-01T08:47:38.292Z,12.27
2023-03-01T08:50:25.540Z,12.25
2023-03-01T08:53:11.341Z,10.85
2023-03-01T08:56:01.565Z,11.77
2023-03-01T08:58:48.400Z,11.50
2023-03-01T09:01:35.880Z,10.32
2023-03-01T09:04:22.345Z,12.18
2023-03-01T09:07:08.311Z,12.63
2023-03-01T09:09:56.287Z,11.45
2023-03-01T09:12:43.548Z,12.95
2023-03-01T09:15:31.157Z,10.75
2023-03-01T09:18:16.642Z,11.98
2023-03-01T09:21:08.227Z,11.20
2023-03-01T09:23:57.414Z,9.65
2023-03-01T09:26:43.304Z,11.18
2023-03-01T09:29:29.245Z,9.50
2023-03-01T09:32:15.177Z,11.50
2023-03-01T09:35:04.846Z,11.12
2023-03-01T09:37:51.456Z,11.23
2023-03-01T09:40:39.790Z,11.52
2023-03-01T09:44:07.530Z,11.82
2023-03-01T09:46:53.392Z,9.38
2023-03-01T09:49:42.773Z,10.95
2023-03-01T09:52:46.060Z,10.80
2023-03-01T09:55:36.546Z,11.23
2023-03-01T09:58:44.188Z,9.30
2023-03-01T10:01:37.103Z,10.27
2023-03-01T10:04:43.085Z,10.73
2023-03-01T10:07:41.161Z,8.30
2023-03-01T10:10:37.545Z,10.43
2023-03-01T10:14:06.264Z,8.63
2023-03-01T10:17:26.005Z,8.23
2023-03-01T10:20:23.611Z,8.93
2023-03-01T10:23:11.146Z,8.75
2023-03-01T10:26:24.583Z,9.38
2023-03-01T10:29:12.110Z,8.98
2023-03-01T10:31:57.285Z,9.10
2023-03-01T10:34:45.170Z,8.45
2023-03-01T10:38:10.300Z,9.82
2023-03-01T10:41:00.174Z,9.50
2023-03-01T10:43:47.652Z,9.68
2023-03-01T10:46:35.501Z,9.63
2023-03-01T10:49:26.688Z,10.07
2023-03-01T10:52:19.784Z,10.57
2023-03-01T10:55:14.368Z,10.20
2023-03-01T10:58:23.439Z,10.35
2023-03-01T11:01:18.543Z,10.00
2023-03-01T11:04:17.397Z,10.10
2023-03-01T11:07:03.536Z,9.77
2023-03-01T11:09:48.916Z,10.95
2023-03-01T11:12:35.985Z,10.10
2023-03-01T11:15:25.354Z,9.30
2023-03-01T11:18:26.608Z,8.50
2023-03-01T11:21:17.251Z,9.70
2023-03-01T11:24:04.509Z,8.80
2023-03-01T11:26:54.203Z,8.90
2023-03-01T11:29:57.547Z,8.32
2023-03-01T11:32:48.912Z,8.38
2023-03-01T11:35:39.488Z,8.63
2023-03-01T11:38:27.411Z,8.93
2023-03-01T11:41:23.046Z,10.32
2023-03-01T11:44:11.358Z,8.25
2023-03-01T11:47:09.373Z,8.32
2023-03-01T11:50:20.760Z,8.45
2023-03-01T11:53:38.652Z,9.38
2023-03-01T11:56:44.128Z,10.25
2023-03-01T11:59:38.744Z,8.07
2023-03-01T12:02:36.623Z,8.07
2023-03-01T12:05:36.331Z,8.25
2023-03-01T12:08:37.268Z,7.70
2023-03-01T12:11:58.551Z,7.85
2023-03-01T12:14:57.884Z,7.95
2023-03-01T12:18:02.115Z,7.57
2023-03-01T12:20:52.041Z,7.28
2023-03-01T12:23:43.353Z,8.25
2023-03-01T12:26:34.934Z,7.00
2023-03-01T12:29:34.134Z,7.37
2023-03-01T12:32:25.475Z,7.40
2023-03-01T12:35:11.049Z,7.32
2023-03-01T12:38:15.029Z,7.93
2023-03-01T12:41:31.325Z,9.48
2023-03-01T12:44:25.529Z,8.27
2023-03-01T12:47:42.859Z,8.73
2023-03-01T12:50:38.449Z,7.85
2023-03-01T12:53:29.714Z,8.43
2023-03-01T12:56:20.991Z,7.78
2023-03-01T12:59:32.963Z,7.60
2023-03-01T13:02:36.830Z,7.93
2023-03-01T13:05:31.509Z,8.43
2023-03-01T13:08:32.083Z,8.57
2023-03-01T13:11:20.952Z,8.18
2023-03-01T13:14:24.190Z,8.50
2023-03-01T13:17:31.029Z,8.10
2023-03-01T13:20:19.167Z,8.40
2023-03-01T13:23:08.556Z,9.00
2023-03-01T13:25:59.890Z,9.18
2023-03-01T13:28:45.135Z,9.73
2023-03-01T13:31:30.097Z,9.73
2023-03-01T13:34:41.358Z,8.45
